Time;durP1;ratioP1;P1;durP2;ratioP2;P2;SDS_P1;SDS_P2;PMS_P1;PMS_P2;Temp;Humidity;BMP_temperature;BMP_pressure;BME280_temperature;BME280_humidity;BME280_pressure;Samples;Min_cycle;Max_cycle;Signal;HPM_P1;HPM_P2
2023/07/25 00:02:21;;;;;;;14.50;9.27;;;;;;;26.01;51.92;97835.69;5112636;28;20168;-56
2023/07/25 00:04:46;;;;;;;13.75;9.70;;;;;;;25.84;51.22;97808.03;5112629;28;20206;-56
2023/07/25 00:07:12;;;;;;;15.27;9.65;;;;;;;25.80;50.97;97801.56;5112209;28;20309;-56
2023/07/25 00:09:37;;;;;;;16.70;9.73;;;;;;;25.92;50.24;97814.97;5112666;28;20668;-56
2023/07/25 00:12:03;;;;;;;10.57;8.18;;;;;;;26.14;49.19;97830.31;5112605;28;20198;-56
2023/07/25 00:14:28;;;;;;;14.98;8.85;;;;;;;26.02;49.17;97810.78;5112541;27;20583;-56
2023/07/25 00:16:53;;;;;;;13.48;9.20;;;;;;;26.08;48.19;97807.28;5112375;28;20175;-56
2023/07/25 00:19:19;;;;;;;15.00;8.88;;;;;;;26.01;48.54;97813.69;5112452;28;20262;-56
2023/07/25 00:21:44;;;;;;;16.67;9.48;;;;;;;26.16;48.06;97817.63;5112477;28;20553;-56
2023/07/25 00:24:09;;;;;;;13.77;9.25;;;;;;;26.05;48.00;97807.72;5112344;27;20167;-56
2023/07/25 00:26:35;;;;;;;11.45;8.82;;;;;;;25.95;49.17;97822.50;5112214;28;20591;-56
2023/07/25 00:29:00;;;;;;;11.18;8.65;;;;;;;26.00;48.90;97812.84;5112315;28;20172;-56
2023/07/25 00:31:25;;;;;;;13.73;8.70;;;;;;;26.02;48.77;97810.00;5112243;28;20527;-56
2023/07/25 00:33:51;;;;;;;14.38;9.13;;;;;;;25.95;49.12;97841.06;5112130;28;20759;-56
2023/07/25 00:36:17;;;;;;;15.00;8.95;;;;;;;25.90;48.89;97828.41;5112298;28;20175;-56
2023/07/25 00:38:42;;;;;;;11.52;8.60;;;;;;;25.78;49.52;97813.41;5112063;28;20171;-56
2023/07/25 00:41:07;;;;;;;14.05;9.13;;;;;;;25.64;49.74;97804.75;5112008;28;20258;-56
2023/07/25 00:43:33;;;;;;;13.18;9.30;;;;;;;25.64;49.54;97817.97;5111905;28;20171;-56
2023/07/25 00:45:59;;;;;;;13.95;9.05;;;;;;;25.55;49.80;97808.66;5112074;28;20289;-57
2023/07/25 00:48:24;;;;;;;13.13;8.65;;;;;;;25.60;50.01;97845.94;5111948;28;20232;-56
2023/07/25 00:50:50;;;;;;;13.18;8.50;;;;;;;25.58;51.23;97850.63;5111984;28;20220;-56
2023/07/25 00:53:16;;;;;;;13.75;9.80;;;;;;;25.33;51.98;97841.00;5112361;28;20175;-56
2023/07/25 00:55:43;;;;;;;15.40;9.50;;;;;;;25.06;52.42;97813.78;5112000;28;20183;-56
2023/07/25 00:58:08;;;;;;;14.85;9.10;;;;;;;25.07;53.38;97835.78;5111989;28;20171;-56
2023/07/25 01:00:36;;;;;;;13.38;9.55;;;;;;;24.88;54.49;97836.66;5111629;28;20194;-56
2023/07/25 01:03:02;;;;;;;14.90;9.27;;;;;;;25.02;54.44;97854.94;5111864;28;20175;-57
2023/07/25 01:05:30;;;;;;;14.85;9.75;;;;;;;25.00;54.73;97845.56;5111565;28;20553;-56
2023/07/25 01:07:56;;;;;;;15.98;10.50;;;;;;;24.95;55.08;97840.91;5111882;28;20315;-56
2023/07/25 01:10:21;;;;;;;17.75;10.32;;;;;;;24.84;55.51;97828.31;5111849;28;20175;-56
2023/07/25 01:12:46;;;;;;;14.93;9.65;;;;;;;25.03;55.45;97864.50;5111848;28;20175;-56
2023/07/25 01:15:12;;;;;;;14.63;10.07;;;;;;;25.05;55.57;97859.81;5111797;28;20666;-56
2023/07/25 01:17:37;;;;;;;16.30;10.32;;;;;;;24.63;56.61;97831.25;5111753;28;20168;-56
2023/07/25 01:20:05;;;;;;;15.18;9.85;;;;;;;24.64;56.86;97832.88;5111711;28;20633;-56
2023/07/25 01:22:33;;;;;;;16.95;9.82;;;;;;;24.79;56.90;97854.59;5111893;28;20175;-56
2023/07/25 01:24:58;;;;;;;15.30;10.35;;;;;;;24.86;56.69;97862.53;5111603;28;20247;-56
2023/07/25 01:27:24;;;;;;;14.07;10.10;;;;;;;24.35;57.94;97837.75;5111647;28;20205;-56
2023/07/25 01:29:49;;;;;;;17.95;10.40;;;;;;;24.44;58.46;97861.13;5111642;28;20172;-56
2023/07/25 01:32:14;;;;;;;14.05;9.88;;;;;;;24.71;58.06;97865.41;5111323;28;20282;-56
2023/07/25 01:34:40;;;;;;;14.35;10.13;;;;;;;24.72;57.18;97837.94;5111403;28;20236;-56
2023/07/25 01:37:06;;;;;;;15.45;9.13;;;;;;;24.77;57.59;97859.28;5111875;28;20254;-56
2023/07/25 01:39:31;;;;;;;17.77;9.65;;;;;;;24.48;58.45;97848.31;5111585;28;20185;-56
2023/07/25 01:41:57;;;;;;;17.58;9.60;;;;;;;24.23;59.31;97853.44;5111783;28;20175;-56
2023/07/25 01:44:22;;;;;;;15.65;10.30;;;;;;;23.94;59.22;97831.06;5111197;28;20171;-56
2023/07/25 01:46:47;;;;;;;17.20;9.60;;;;;;;24.06;59.80;97843.47;5111419;28;20305;-56
2023/07/25 01:49:13;;;;;;;15.85;9.90;;;;;;;24.08;59.46;97829.03;5112905;28;20614;-56
2023/07/25 01:51:39;;;;;;;17.48;9.88;;;;;;;23.96;59.09;97823.75;5115142;28;20221;-55
2023/07/25 01:54:04;;;;;;;13.98;9.43;;;;;;;24.27;58.91;97859.94;5115422;28;20183;-56
2023/07/25 01:56:30;;;;;;;14.32;9.68;;;;;;;24.25;59.11;97856.69;5115068;28;20265;-56
2023/07/25 01:58:56;;;;;;;15.90;9.43;;;;;;;24.32;58.92;97862.78;5115058;28;20248;-55
2023/07/25 02:01:21;;;;;;;13.60;9.55;;;;;;;24.04;59.45;97850.78;5114934;28;20171;-55
2023/07/25 02:03:47;;;;;;;14.98;9.63;;;;;;;23.87;59.42;97831.03;5115048;28;20652;-56
2023/07/25 02:06:12;;;;;;;15.95;9.73;;;;;;;24.21;58.95;97860.75;5114882;28;20207;-55
2023/07/25 02:08:38;;;;;;;17.77;9.27;;;;;;;24.08;59.31;97828.22;5114833;28;20308;-55
2023/07/25 02:11:03;;;;;;;16.55;10.20;;;;;;;23.95;59.82;97833.50;5114857;28;20246;-56
2023/07/25 02:13:28;;;;;;;15.18;9.20;;;;;;;23.86;60.27;97830.19;5114864;28;20170;-56
2023/07/25 02:15:54;;;;;;;15.27;9.15;;;;;;;23.98;60.16;97833.91;5114740;28;20167;-56
2023/07/25 02:18:19;;;;;;;13.13;9.75;;;;;;;24.36;59.59;97858.72;5114746;28;20178;-56
2023/07/25 02:20:45;;;;;;;13.85;9.38;;;;;;;24.00;60.77;97838.97;5114555;28;20253;-56
2023/07/25 02:23:10;;;;;;;15.65;9.88;;;;;;;23.84;61.03;97826.13;5114881;28;20179;-56
2023/07/25 02:25:35;;;;;;;12.65;9.07;;;;;;;24.00;60.36;97846.13;5114318;28;20205;-56
2023/07/25 02:28:01;;;;;;;18.02;9.43;;;;;;;23.97;57.45;97835.94;5114442;28;20190;-56
2023/07/25 02:30:26;;;;;;;16.58;9.40;;;;;;;24.09;57.88;97857.09;5114030;28;20175;-55
2023/07/25 02:32:52;;;;;;;12.35;8.20;;;;;;;23.92;56.75;97871.69;5113995;28;20179;-55
2023/07/25 02:35:17;;;;;;;12.27;8.50;;;;;;;23.86;56.89;97835.47;5114286;28;20199;-56
2023/07/25 02:37:42;;;;;;;14.32;8.93;;;;;;;24.04;57.25;97862.16;5114214;28;20189;-56
2023/07/25 02:40:09;;;;;;;15.98;9.30;;;;;;;23.85;58.41;97870.84;5114611;28;20254;-56
2023/07/25 02:42:34;;;;;;;14.23;8.82;;;;;;;23.66;58.72;97844.41;5113979;28;20287;-56
2023/07/25 02:45:00;;;;;;;13.60;8.45;;;;;;;23.86;57.68;97847.91;5114151;28;20713;-56
2023/07/25 02:47:26;;;;;;;16.58;8.50;;;;;;;24.03;55.71;97857.91;5114044;28;20175;-56
2023/07/25 02:49:51;;;;;;;15.55;8.40;;;;;;;23.89;56.81;97849.38;5114258;28;20213;-55
2023/07/25 02:52:18;;;;;;;15.60;8.02;;;;;;;23.92;56.29;97846.28;5114028;28;20167;-56
2023/07/25 02:54:43;;;;;;;11.25;7.43;;;;;;;24.09;55.12;97866.88;5114191;28;20273;-56
2023/07/25 02:57:08;;;;;;;12.48;8.05;;;;;;;24.08;54.83;97860.75;5113852;28;20640;-56
2023/07/25 02:59:34;;;;;;;14.40;7.65;;;;;;;24.20;53.98;97864.41;5113622;28;20171;-56
2023/07/25 03:01:59;;;;;;;13.48;8.55;;;;;;;23.95;55.55;97836.13;5112865;28;20194;-56
2023/07/25 03:04:25;;;;;;;16.60;8.32;;;;;;;23.85;57.11;97841.78;5113742;28;20691;-56
2023/07/25 03:06:50;;;;;;;14.50;8.27;;;;;;;23.85;57.04;97847.06;5113698;28;20226;-56
2023/07/25 03:09:16;;;;;;;13.60;8.05;;;;;;;23.80;55.07;97838.94;5113543;28;20170;-56
2023/07/25 03:11:41;;;;;;;13.05;8.25;;;;;;;23.98;54.61;97849.75;5113470;28;20171;-56
2023/07/25 03:14:06;;;;;;;14.13;8.55;;;;;;;23.95;54.40;97851.19;5113488;28;20175;-55
2023/07/25 03:16:32;;;;;;;15.02;8.45;;;;;;;24.16;53.95;97870.31;5113399;27;20626;-56
2023/07/25 03:18:57;;;;;;;11.35;7.70;;;;;;;24.00;53.79;97851.41;5113229;28;20174;-55
2023/07/25 03:21:23;;;;;;;13.35;8.05;;;;;;;24.19;54.07;97873.38;5113239;28;20182;-56
2023/07/25 03:23:48;;;;;;;9.73;7.00;;;;;;;23.98;53.97;97836.53;5113385;28;20171;-56
2023/07/25 03:26:13;;;;;;;13.25;7.90;;;;;;;24.01;54.36;97847.75;5113225;28;20320;-56
2023/07/25 03:28:39;;;;;;;14.73;8.13;;;;;;;24.20;54.14;97874.19;5113128;28;20174;-56
2023/07/25 03:31:05;;;;;;;14.90;7.63;;;;;;;24.18;54.58;97876.19;5113266;28;20174;-56
2023/07/25 03:33:31;;;;;;;17.08;8.45;;;;;;;24.28;54.42;97876.63;5113159;28;20200;-55
2023/07/25 03:35:56;;;;;;;14.90;7.70;;;;;;;24.17;53.88;97864.00;5112876;28;20175;-56
2023/07/25 03:38:22;;;;;;;15.13;8.10;;;;;;;24.09;54.25;97851.78;5110249;28;20262;-56
2023/07/25 03:40:47;;;;;;;14.63;8.57;;;;;;;24.39;53.72;97884.75;5110420;28;20190;-56
2023/07/25 03:43:13;;;;;;;12.55;8.07;;;;;;;24.39;54.01;97884.75;5110390;28;20175;-55
2023/07/25 03:45:39;;;;;;;15.88;8.05;;;;;;;24.46;54.13;97885.56;5110133;28;20231;-56
2023/07/25 03:48:05;;;;;;;11.50;7.68;;;;;;;24.30;54.22;97856.06;5110181;28;20179;-56
2023/07/25 03:50:30;;;;;;;15.40;7.95;;;;;;;24.39;53.94;97846.91;5110467;28;20175;-56
2023/07/25 03:52:58;;;;;;;14.43;8.45;;;;;;;24.54;53.85;97866.00;5110228;28;20183;-56
2023/07/25 03:55:24;;;;;;;9.60;7.70;;;;;;;24.59;55.69;97877.66;5109995;28;20183;-56
2023/07/25 03:57:50;;;;;;;15.52;8.40;;;;;;;24.37;58.39;97843.66;5109767;28;20545;-56
2023/07/25 04:00:15;;;;;;;13.40;8.02;;;;;;;24.56;58.37;97858.69;5109740;28;20644;-56
2023/07/25 04:02:41;;;;;;;13.68;8.85;;;;;;;24.83;57.77;97879.63;5109668;28;20198;-56
2023/07/25 04:05:07;;;;;;;12.50;8.30;;;;;;;25.00;56.20;97872.88;5109259;28;20607;-56
2023/07/25 04:07:34;;;;;;;12.55;8.77;;;;;;;25.18;55.37;97872.19;5109484;28;20179;-56
2023/07/25 04:09:59;;;;;;;15.00;8.88;;;;;;;25.26;55.70;97872.78;5111128;28;20222;-56
2023/07/25 04:12:25;;;;;;;12.43;8.90;;;;;;;25.20;54.96;97841.81;5111748;28;20668;-56
2023/07/25 04:14:50;;;;;;;11.52;8.10;;;;;;;25.42;52.73;97859.06;5111903;28;20174;-56
2023/07/25 04:17:16;;;;;;;13.27;8.10;;;;;;;25.38;51.53;97846.47;5111874;28;20175;-56
2023/07/25 04:19:41;;;;;;;12.80;8.05;;;;;;;25.44;50.77;97854.41;5111862;28;20171;-56
2023/07/25 04:22:06;;;;;;;13.13;7.97;;;;;;;25.55;50.97;97872.25;5111798;28;20279;-56
2023/07/25 04:24:32;;;;;;;10.75;7.65;;;;;;;25.23;51.65;97848.53;5111865;28;20657;-57
2023/07/25 04:26:57;;;;;;;10.75;8.30;;;;;;;25.23;52.25;97875.84;5111773;28;20343;-57
2023/07/25 04:29:23;;;;;;;13.02;9.15;;;;;;;24.96;53.21;97837.22;5111622;28;20605;-57
2023/07/25 04:31:48;;;;;;;14.27;8.30;;;;;;;25.32;53.34;97887.84;5111739;28;20168;-57
2023/07/25 04:34:13;;;;;;;12.85;8.93;;;;;;;25.43;53.31;97865.19;5111694;28;20236;-57
2023/07/25 04:36:39;;;;;;;18.88;9.88;;;;;;;25.49;53.66;97867.78;5111576;28;20699;-57
2023/07/25 04:39:04;;;;;;;13.05;8.23;;;;;;;25.51;51.96;97871.06;5111588;28;20240;-57
2023/07/25 04:41:30;;;;;;;15.77;8.15;;;;;;;25.52;52.01;97862.09;5111694;28;20205;-57
2023/07/25 04:43:55;;;;;;;14.63;9.00;;;;;;;25.60;52.08;97863.69;5111337;27;20266;-57
2023/07/25 04:46:20;;;;;;;18.15;10.02;;;;;;;25.68;52.77;97860.78;5111412;28;20195;-57
2023/07/25 04:48:46;;;;;;;21.27;11.27;;;;;;;25.99;54.29;97896.09;5111447;28;20211;-57
2023/07/25 04:51:12;;;;;;;19.67;11.18;;;;;;;26.06;54.66;97878.28;5111482;28;20171;-57
2023/07/25 04:53:37;;;;;;;20.13;10.82;;;;;;;26.28;54.73;97892.81;5111489;28;20602;-57
2023/07/25 04:56:02;;;;;;;17.75;9.93;;;;;;;26.33;51.60;97887.69;5129266;28;20186;-57
2023/07/25 04:58:28;;;;;;;18.42;10.02;;;;;;;26.38;51.41;97879.06;5129534;28;20225;-57
2023/07/25 05:00:53;;;;;;;14.05;8.93;;;;;;;26.45;51.21;97875.31;5129523;28;20186;-57
2023/07/25 05:03:19;;;;;;;14.60;9.18;;;;;;;26.54;51.10;97895.25;5129442;28;20210;-57
2023/07/25 05:05:44;;;;;;;14.85;8.50;;;;;;;26.61;50.13;97890.72;5129106;28;20683;-55
2023/07/25 05:08:10;;;;;;;16.23;9.05;;;;;;;26.35;49.87;97861.72;5129632;28;20182;-56
2023/07/25 05:10:35;;;;;;;11.60;9.07;;;;;;;26.66;51.26;97888.22;5129371;28;20624;-56
2023/07/25 05:13:01;;;;;;;18.60;9.88;;;;;;;26.66;51.21;97876.78;5088210;28;20184;-56
2023/07/25 05:15:26;;;;;;;17.38;9.63;;;;;;;26.76;51.75;97877.91;5088416;28;20191;-56
2023/07/25 05:17:52;;;;;;;14.73;9.90;;;;;;;26.75;51.94;97873.63;5088392;28;20180;-57
2023/07/25 05:20:17;;;;;;;18.17;10.23;;;;;;;27.01;51.39;97886.63;5088330;28;20171;-57
2023/07/25 05:22:43;;;;;;;18.73;9.75;;;;;;;27.12;51.62;97883.22;5088301;28;20274;-57
2023/07/25 05:25:08;;;;;;;22.58;10.90;;;;;;;27.06;51.40;97857.56;5091184;28;20666;-57
2023/07/25 05:27:34;;;;;;;18.70;12.13;;;;;;;27.23;52.71;97873.75;5092167;28;20620;-57
2023/07/25 05:29:59;;;;;;;15.82;10.70;;;;;;;27.27;52.19;97861.63;5092148;28;20179;-57
2023/07/25 05:32:25;;;;;;;17.75;9.60;;;;;;;27.43;51.38;97875.13;5092009;28;20257;-57
2023/07/25 05:34:50;;;;;;;17.70;11.38;;;;;;;27.65;51.96;97894.84;5092221;28;20180;-57
2023/07/25 05:37:19;;;;;;;18.15;11.70;;;;;;;27.44;52.03;97866.13;5092102;28;20211;-56
2023/07/25 05:39:44;;;;;;;18.88;11.35;;;;;;;27.48;52.18;97866.47;5092019;28;20251;-56
2023/07/25 05:42:10;;;;;;;19.65;10.90;;;;;;;27.57;51.88;97886.41;5092053;28;20188;-57
2023/07/25 05:44:35;;;;;;;18.55;10.93;;;;;;;27.60;51.61;97870.81;5108998;28;20274;-57
2023/07/25 05:47:04;;;;;;;17.25;10.90;;;;;;;27.81;51.31;97882.84;5114720;28;20699;-57
2023/07/25 05:49:30;;;;;;;16.33;10.25;;;;;;;27.80;50.99;97868.72;5114789;28;20171;-57
2023/07/25 05:51:56;;;;;;;20.27;10.45;;;;;;;27.78;50.63;97862.81;5114739;28;20236;-57
2023/07/25 05:54:21;;;;;;;23.13;10.85;;;;;;;27.97;50.19;97885.66;5114781;28;20243;-57
2023/07/25 05:56:47;;;;;;;18.20;11.05;;;;;;;27.96;50.25;97878.72;5114411;28;20812;-57
2023/07/25 05:59:12;;;;;;;21.25;10.93;;;;;;;28.14;50.28;97905.25;5114704;28;20254;-56
2023/07/25 06:01:41;;;;;;;18.65;10.77;;;;;;;28.24;49.04;97912.66;5114581;27;20183;-56
2023/07/25 06:04:06;;;;;;;21.83;11.23;;;;;;;28.16;48.70;97895.19;5114315;28;20665;-56
2023/07/25 06:06:32;;;;;;;20.92;11.10;;;;;;;28.07;48.83;97871.78;5114450;28;20298;-56
2023/07/25 06:08:57;;;;;;;26.17;10.80;;;;;;;28.25;48.79;97882.34;5114393;28;20174;-56
2023/07/25 06:11:23;;;;;;;21.13;10.70;;;;;;;28.24;48.49;97870.91;5114366;28;20185;-56
2023/07/25 06:13:49;;;;;;;22.17;11.77;;;;;;;28.12;49.05;97869.25;5114413;28;20168;-56
2023/07/25 06:16:17;;;;;;;24.23;10.88;;;;;;;27.82;50.07;97885.25;5114378;28;20605;-56
2023/07/25 06:18:43;;;;;;;20.20;11.55;;;;;;;27.57;50.93;97865.94;5114643;28;20171;-56
2023/07/25 06:21:08;;;;;;;23.92;11.85;;;;;;;27.54;51.11;97862.94;5114394;28;20182;-56
2023/07/25 06:23:33;;;;;;;16.75;10.85;;;;;;;27.54;51.42;97871.72;5114025;28;20167;-56
2023/07/25 06:25:59;;;;;;;19.60;10.60;;;;;;;27.38;50.82;97867.00;5113829;28;20586;-56
2023/07/25 06:28:24;;;;;;;16.75;10.20;;;;;;;27.23;50.78;97847.19;5114163;28;20641;-57
2023/07/25 06:30:50;;;;;;;19.58;10.35;;;;;;;27.44;51.64;97855.50;5114445;28;20177;-56
2023/07/25 06:33:15;;;;;;;22.23;11.35;;;;;;;27.67;51.59;97863.56;5114062;28;20179;-56
2023/07/25 06:35:41;;;;;;;29.23;11.45;;;;;;;27.69;52.04;97852.69;5113724;28;20388;-57
2023/07/25 06:38:06;;;;;;;22.20;11.05;;;;;;;27.81;51.27;97848.25;5113727;28;20171;-56
2023/07/25 06:40:32;;;;;;;25.40;11.35;;;;;;;27.69;51.68;97826.91;5113905;28;20179;-56
2023/07/25 06:42:57;;;;;;;19.35;10.40;;;;;;;27.99;50.85;97833.03;5113869;28;20169;-56
2023/07/25 06:45:22;;;;;;;18.73;10.48;;;;;;;28.12;50.56;97832.84;5113707;28;20241;-56
2023/07/25 06:47:48;;;;;;;20.52;10.73;;;;;;;28.07;50.46;97824.72;5113798;28;20168;-56
2023/07/25 06:50:13;;;;;;;20.17;10.10;;;;;;;28.12;50.80;97818.72;5113812;28;20171;-57
2023/07/25 06:52:39;;;;;;;16.15;10.40;;;;;;;28.10;50.49;97808.28;5113766;28;20171;-56
2023/07/25 06:55:05;;;;;;;23.23;10.90;;;;;;;28.30;49.72;97818.59;5113459;28;20171;-56
2023/07/25 06:57:31;;;;;;;23.48;11.70;;;;;;;28.36;49.78;97812.34;5113736;28;20612;-56
2023/07/25 06:59:56;;;;;;;25.67;11.15;;;;;;;28.73;49.45;97841.19;5113785;28;20258;-56
2023/07/25 07:02:22;;;;;;;23.83;10.90;;;;;;;28.83;48.75;97825.44;5113313;28;20171;-56
2023/07/25 07:04:47;;;;;;;18.88;10.90;;;;;;;28.85;48.87;97817.22;5113537;28;20179;-56
2023/07/25 07:07:12;;;;;;;27.33;12.20;;;;;;;29.15;48.79;97845.31;5112892;28;20275;-56
2023/07/25 07:09:38;;;;;;;23.65;12.05;;;;;;;29.12;48.16;97821.00;5113409;28;20287;-56
2023/07/25 07:12:04;;;;;;;22.05;12.40;;;;;;;29.27;47.76;97831.97;5113354;28;20171;-56
2023/07/25 07:14:29;;;;;;;18.00;11.48;;;;;;;29.38;47.28;97826.56;5113345;28;20171;-56
2023/07/25 07:16:55;;;;;;;20.90;11.35;;;;;;;29.47;47.31;97821.69;5112910;28;20187;-56
2023/07/25 07:19:20;;;;;;;20.40;11.82;;;;;;;29.69;47.04;97836.00;5113200;28;20227;-56
2023/07/25 07:21:46;;;;;;;23.35;12.05;;;;;;;29.72;47.27;97828.31;5113482;27;20262;-56
2023/07/25 07:24:11;;;;;;;25.85;13.45;;;;;;;29.80;46.68;97819.13;5112989;28;20548;-56
2023/07/25 07:26:37;;;;;;;26.95;13.90;;;;;;;29.88;46.24;97824.03;5113016;28;20243;-56
2023/07/25 07:29:02;;;;;;;19.98;12.55;;;;;;;29.72;46.69;97833.66;5112980;28;20598;-56
2023/07/25 07:31:27;;;;;;;24.02;12.20;;;;;;;29.43;46.77;97805.34;5113156;28;20167;-56
2023/07/25 07:34:13;;;;;;;21.15;11.98;;;;;;;29.47;46.91;97806.50;5112792;28;20179;-57
2023/07/25 07:36:38;;;;;;;30.02;13.77;;;;;;;29.61;46.40;97799.84;5112963;28;20179;-56
2023/07/25 07:39:04;;;;;;;24.55;13.32;;;;;;;29.79;45.80;97820.16;5112877;28;20281;-56
2023/07/25 07:41:29;;;;;;;27.35;13.10;;;;;;;29.85;45.84;97813.88;5112979;28;20667;-56
2023/07/25 07:43:54;;;;;;;27.02;13.65;;;;;;;29.57;45.66;97789.91;5112865;28;20174;-56
2023/07/25 07:46:20;;;;;;;29.15;12.23;;;;;;;29.68;45.97;97792.50;5112078;28;20210;-56
2023/07/25 07:48:45;;;;;;;31.75;12.70;;;;;;;29.55;46.48;97776.81;5112856;28;20523;-56
2023/07/25 07:51:11;;;;;;;30.67;13.57;;;;;;;29.74;46.75;97780.84;5112734;28;20218;-56
2023/07/25 07:53:38;;;;;;;24.33;13.35;;;;;;;29.69;46.56;97775.47;5112680;28;20250;-56
2023/07/25 07:56:07;;;;;;;25.08;13.85;;;;;;;29.94;46.17;97786.53;5112565;28;20178;-56
2023/07/25 07:58:32;;;;;;;31.35;13.70;;;;;;;29.81;45.79;97773.53;5112546;28;20175;-56
2023/07/25 08:00:58;;;;;;;29.77;13.65;;;;;;;29.86;45.70;97756.78;5112515;28;20182;-56
2023/07/25 08:03:23;;;;;;;20.80;11.98;;;;;;;30.17;45.25;97762.38;5112495;28;20257;-56
2023/07/25 08:05:56;;;;;;;22.88;12.45;;;;;;;30.36;44.57;97763.72;5112296;28;20206;-56
2023/07/25 08:08:21;;;;;;;31.42;14.02;;;;;;;30.39;44.77;97736.56;5112147;28;20635;-56
2023/07/25 08:10:47;;;;;;;25.50;11.93;;;;;;;30.62;44.45;97763.03;5111928;28;20329;-56
2023/07/25 08:13:12;;;;;;;24.98;11.93;;;;;;;30.51;44.64;97758.63;5112510;27;20262;-56
2023/07/25 08:15:37;;;;;;;20.13;12.52;;;;;;;30.61;44.70;97765.94;5112198;28;20179;-56
2023/07/25 08:18:03;;;;;;;19.27;11.85;;;;;;;30.71;44.72;97761.56;5112251;28;20176;-56
2023/07/25 08:20:28;;;;;;;25.45;12.35;;;;;;;30.74;44.17;97754.91;5112165;28;20262;-56
2023/07/25 08:22:54;;;;;;;27.25;11.85;;;;;;;30.74;44.98;97750.41;5112148;28;20654;-56
2023/07/25 08:25:19;;;;;;;26.20;12.07;;;;;;;30.60;44.81;97733.06;5112025;28;20195;-56
2023/07/25 08:27:44;;;;;;;22.27;11.95;;;;;;;30.46;44.98;97723.81;5112155;28;20167;-56
2023/07/25 08:30:10;;;;;;;24.88;11.88;;;;;;;30.58;44.87;97715.69;5112153;28;20273;-56
2023/07/25 08:32:36;;;;;;;24.33;11.57;;;;;;;30.74;44.87;97731.69;5112111;28;20167;-56
2023/07/25 08:35:01;;;;;;;21.10;11.75;;;;;;;30.97;44.06;97742.13;5111996;28;20171;-56
2023/07/25 08:37:26;;;;;;;22.80;11.25;;;;;;;30.99;44.20;97736.50;5112235;28;20176;-56
2023/07/25 08:39:52;;;;;;;32.72;12.35;;;;;;;31.06;43.74;97719.22;5111821;28;20665;-56
2023/07/25 08:42:18;;;;;;;28.13;12.50;;;;;;;31.19;43.29;97721.53;5111861;28;20194;-56
2023/07/25 08:44:46;;;;;;;33.72;14.68;;;;;;;31.28;42.88;97713.84;5111552;28;20594;-56
2023/07/25 08:47:21;;;;;;;28.40;13.68;;;;;;;31.46;42.92;97714.31;5111679;28;20206;-56
2023/07/25 08:49:49;;;;;;;21.40;12.38;;;;;;;31.71;42.91;97729.78;5111736;28;20170;-56
2023/07/25 08:52:16;;;;;;;22.65;11.45;;;;;;;31.73;42.32;97714.28;5112029;28;20171;-56
2023/07/25 08:54:44;;;;;;;20.95;11.55;;;;;;;31.84;42.27;97724.84;5111787;28;20186;-56
2023/07/25 08:57:10;;;;;;;19.85;12.07;;;;;;;31.96;42.29;97722.78;5111399;28;20699;-56
2023/07/25 08:59:35;;;;;;;23.48;11.30;;;;;;;32.02;42.23;97724.44;5115727;28;20178;-56
2023/07/25 09:02:02;;;;;;;15.85;11.55;;;;;;;32.24;42.10;97738.50;5115864;28;20487;-56
2023/07/25 09:04:27;;;;;;;19.27;10.95;;;;;;;32.24;41.28;97733.16;5116000;28;20171;-56
2023/07/25 09:06:53;;;;;;;19.88;11.00;;;;;;;32.35;40.56;97734.81;5115320;28;20221;-56
2023/07/25 09:09:19;;;;;;;18.65;10.55;;;;;;;32.28;40.82;97699.44;5115885;28;20258;-56
2023/07/25 09:11:45;;;;;;;19.55;11.85;;;;;;;32.37;41.07;97707.78;5115896;27;20171;-56
2023/07/25 09:14:13;;;;;;;24.40;12.30;;;;;;;32.50;40.52;97718.03;5115677;28;20167;-56
2023/07/25 09:16:39;;;;;;;17.92;10.85;;;;;;;32.43;40.78;97690.69;5115810;28;20267;-56
2023/07/25 09:19:04;;;;;;;22.75;11.15;;;;;;;32.66;41.01;97715.19;5115335;28;20265;-56
2023/07/25 09:21:30;;;;;;;16.98;11.43;;;;;;;32.75;40.96;97716.28;5115554;28;20225;-56
2023/07/25 09:23:57;;;;;;;18.83;11.20;;;;;;;32.72;40.60;97708.75;5115528;28;20167;-56
2023/07/25 09:26:27;;;;;;;16.92;11.02;;;;;;;32.67;40.87;97678.44;5112720;28;20212;-56
2023/07/25 09:28:55;;;;;;;27.88;10.98;;;;;;;32.93;40.77;97702.41;5113018;28;20179;-56
2023/07/25 09:31:21;;;;;;;20.88;11.05;;;;;;;32.80;40.47;97673.44;5112964;28;20187;-56
2023/07/25 09:33:51;;;;;;;22.20;11.57;;;;;;;32.92;41.07;97667.81;5112959;28;20262;-56
2023/07/25 09:36:18;;;;;;;26.90;10.48;;;;;;;33.14;40.56;97693.38;5112888;28;20195;-56
2023/07/25 09:38:55;;;;;;;21.40;10.75;;;;;;;33.15;40.41;97676.19;5112679;28;20262;-57
2023/07/25 09:41:22;;;;;;;15.82;10.15;;;;;;;33.36;40.42;97693.97;5112714;28;20228;-57
2023/07/25 09:43:48;;;;;;;15.75;9.68;;;;;;;33.19;40.57;97663.88;5112672;28;20175;-57
2023/07/25 09:46:14;;;;;;;13.15;9.38;;;;;;;33.41;40.67;97685.91;5112444;28;20647;-57
2023/07/25 09:48:46;;;;;;;14.35;9.25;;;;;;;33.50;39.46;97692.34;5112596;28;20171;-57
2023/07/25 09:51:12;;;;;;;22.58;10.05;;;;;;;33.33;39.63;97675.72;5112501;28;20199;-57
2023/07/25 09:53:40;;;;;;;15.38;9.23;;;;;;;33.38;39.12;97656.94;5112385;28;20179;-57
2023/07/25 09:56:07;;;;;;;13.68;9.73;;;;;;;33.58;39.12;97674.91;5112303;28;20669;-57
2023/07/25 09:58:33;;;;;;;16.75;9.50;;;;;;;33.47;39.05;97649.97;5114420;28;20219;-56
2023/07/25 10:01:00;;;;;;;15.90;9.73;;;;;;;33.77;38.82;97681.38;5114760;28;20175;-56
2023/07/25 10:03:28;;;;;;;14.40;9.73;;;;;;;33.74;39.53;97661.22;5114828;28;20171;-56
2023/07/25 10:05:53;;;;;;;16.42;10.20;;;;;;;33.85;38.79;97675.44;5114634;28;20211;-57
2023/07/25 10:08:21;;;;;;;21.48;10.48;;;;;;;33.94;38.29;97663.91;5114245;28;20171;-57
2023/07/25 10:10:47;;;;;;;16.38;10.23;;;;;;;34.00;38.23;97646.72;5113912;28;20171;-57
2023/07/25 10:13:14;;;;;;;16.88;10.00;;;;;;;34.13;38.28;97639.94;5114514;28;20220;-57
2023/07/25 10:15:40;;;;;;;17.05;9.73;;;;;;;34.26;37.95;97644.78;5114471;28;20179;-57
2023/07/25 10:18:18;;;;;;;16.58;9.93;;;;;;;34.30;36.90;97635.91;5114125;28;20676;-57
2023/07/25 10:20:44;;;;;;;14.75;10.15;;;;;;;34.24;37.58;97631.59;5114445;28;20179;-57
2023/07/25 10:23:11;;;;;;;14.65;9.18;;;;;;;34.34;37.76;97634.25;5114370;28;20170;-57
2023/07/25 10:25:36;;;;;;;16.00;9.95;;;;;;;34.49;37.37;97623.47;5114149;28;20255;-56
2023/07/25 10:28:03;;;;;;;15.32;9.18;;;;;;;34.75;36.64;97646.50;5114142;28;20203;-56
2023/07/25 10:30:31;;;;;;;17.63;9.55;;;;;;;34.93;37.30;97636.97;5114182;28;20174;-56
2023/07/25 10:33:02;;;;;;;17.27;10.13;;;;;;;35.03;36.31;97626.16;5113882;28;20658;-56
2023/07/25 10:35:50;;;;;;;19.35;9.25;;;;;;;35.14;36.97;97606.94;5114129;28;20179;-56
2023/07/25 10:38:42;;;;;;;13.02;9.02;;;;;;;35.38;36.70;97631.28;5113908;28;20202;-56
2023/07/25 10:41:13;;;;;;;15.02;9.25;;;;;;;35.37;35.85;97627.00;5114128;28;20180;-56
2023/07/25 10:43:44;;;;;;;18.58;9.85;;;;;;;35.37;36.51;97621.63;5114054;28;20190;-56
2023/07/25 10:46:13;;;;;;;17.63;9.45;;;;;;;35.46;36.23;97623.41;5113847;27;20247;-56
2023/07/25 10:48:46;;;;;;;16.63;9.30;;;;;;;35.49;36.11;97609.38;5113764;28;20167;-56
2023/07/25 10:51:15;;;;;;;12.20;8.73;;;;;;;35.49;35.73;97590.53;5113864;28;20179;-56
2023/07/25 10:54:01;;;;;;;16.92;9.20;;;;;;;35.84;35.09;97600.97;5113760;28;20641;-56
2023/07/25 10:56:26;;;;;;;15.07;8.93;;;;;;;35.93;35.50;97566.97;5113626;28;20324;-57
2023/07/25 10:59:04;;;;;;;15.50;9.65;;;;;;;36.19;35.35;97567.50;5113335;28;20211;-57
2023/07/25 11:01:32;;;;;;;11.63;9.00;;;;;;;36.64;34.60;97588.47;5113574;28;20305;-57
2023/07/25 11:04:21;;;;;;;11.13;9.30;;;;;;;36.78;34.44;97590.16;5113802;28;20182;-57
2023/07/25 11:06:49;;;;;;;15.48;8.75;;;;;;;36.83;33.90;97565.81;5113569;28;20294;-57
2023/07/25 11:09:14;;;;;;;14.00;9.95;;;;;;;36.94;33.34;97556.47;5113088;28;20171;-57
2023/07/25 11:11:49;;;;;;;14.35;8.77;;;;;;;36.86;33.72;97565.22;5113381;28;20263;-57
2023/07/25 11:14:17;;;;;;;11.30;8.38;;;;;;;37.12;33.94;97561.06;5113366;28;20644;-57
2023/07/25 11:16:44;;;;;;;12.35;9.05;;;;;;;37.40;33.54;97568.13;5113326;28;20775;-57
2023/07/25 11:19:10;;;;;;;15.68;8.75;;;;;;;37.33;33.40;97559.63;5113014;28;20657;-57